sensor_id;sensor_type;location;lat;lon;timestamp;pressure;altitude;pressure_sealevel;temperature;humidity
24858;BME280;12935;50.782;6.074;2023-04-15T00:00:51;98609.50;;;7.00;100.00
24858;BME280;12935;50.782;6.074;2023-04-15T00:03:16;98614.16;;;7.07;100.00
24858;BME280;12935;50.782;6.074;2023-04-15T00:05:43;98613.75;;;7.12;100.00
24858;BME280;12935;50.782;6.074;2023-04-15T00:08:08;98610.66;;;7.02;100.00
24858;BME280;12935;50.782;6.074;2023-04-15T00:10:33;98605.59;;;7.15;100.00
24858;BME280;12935;50.782;6.074;2023-04-15T00:12:59;98604.03;;;7.21;100.00
24858;BME280;12935;50.782;6.074;2023-04-15T00:15:26;98604.41;;;7.23;100.00
24858;BME280;12935;50.782;6.074;2023-04-15T00:17:51;98602.03;;;7.36;100.00
24858;BME280;12935;50.782;6.074;2023-04-15T00:20:17;98603.94;;;7.50;100.00
24858;BME280;12935;50.782;6.074;2023-04-15T00:22:42;98594.94;;;7.56;100.00
24858;BME280;12935;50.782;6.074;2023-04-15T00:25:07;98592.97;;;7.67;100.00
24858;BME280;12935;50.782;6.074;2023-04-15T00:27:33;98599.16;;;7.71;100.00
24858;BME280;12935;50.782;6.074;2023-04-15T00:29:58;98598.75;;;7.77;99.00
24858;BME280;12935;50.782;6.074;2023-04-15T00:32:24;98599.09;;;7.86;97.79
24858;BME280;12935;50.782;6.074;2023-04-15T00:34:49;98593.25;;;7.87;96.52
24858;BME280;12935;50.782;6.074;2023-04-15T00:37:15;98589.72;;;7.94;94.55
24858;BME280;12935;50.782;6.074;2023-04-15T00:39:40;98590.47;;;8.01;93.24
24858;BME280;12935;50.782;6.074;2023-04-15T00:42:06;98596.22;;;8.10;93.83
24858;BME280;12935;50.782;6.074;2023-04-15T00:44:32;98590.38;;;8.16;93.68
24858;BME280;12935;50.782;6.074;2023-04-15T00:46:59;98585.34;;;8.10;93.40
24858;BME280;12935;50.782;6.074;2023-04-15T00:49:25;98585.72;;;8.09;92.82
24858;BME280;12935;50.782;6.074;2023-04-15T00:51:51;98583.38;;;8.15;91.92
24858;BME280;12935;50.782;6.074;2023-04-15T00:54:16;98584.16;;;8.15;91.78
24858;BME280;12935;50.782;6.074;2023-04-15T00:56:42;98582.53;;;8.21;91.63
24858;BME280;12935;50.782;6.074;2023-04-15T00:59:07;98584.09;;;8.22;90.95
24858;BME280;12935;50.782;6.074;2023-04-15T01:01:36;98583.69;;;8.24;90.93
24858;BME280;12935;50.782;6.074;2023-04-15T01:04:03;98586.38;;;8.27;90.34
24858;BME280;12935;50.782;6.074;2023-04-15T01:06:29;98582.88;;;8.30;89.94
24858;BME280;12935;50.782;6.074;2023-04-15T01:08:56;98585.22;;;8.32;89.96
24858;BME280;12935;50.782;6.074;2023-04-15T01:11:22;98588.31;;;8.34;89.79
24858;BME280;12935;50.782;6.074;2023-04-15T01:13:49;98584.78;;;8.37;89.84
24858;BME280;12935;50.782;6.074;2023-04-15T01:16:15;98583.59;;;8.38;89.19
24858;BME280;12935;50.782;6.074;2023-04-15T01:18:41;98589.88;;;8.31;89.07
24858;BME280;12935;50.782;6.074;2023-04-15T01:21:06;98577.06;;;8.25;88.47
24858;BME280;12935;50.782;6.074;2023-04-15T01:23:35;98577.44;;;8.27;88.50
24858;BME280;12935;50.782;6.074;2023-04-15T01:26:01;98572.03;;;8.23;88.48
24858;BME280;12935;50.782;6.074;2023-04-15T01:28:27;98575.13;;;8.25;87.99
24858;BME280;12935;50.782;6.074;2023-04-15T01:31:09;98580.16;;;8.27;88.27
24858;BME280;12935;50.782;6.074;2023-04-15T01:33:35;98576.38;;;8.14;88.00
24858;BME280;12935;50.782;6.074;2023-04-15T01:36:01;98572.13;;;8.13;88.39
24858;BME280;12935;50.782;6.074;2023-04-15T01:38:27;98580.66;;;8.15;88.68
24858;BME280;12935;50.782;6.074;2023-04-15T01:40:53;98576.00;;;8.15;88.69
24858;BME280;12935;50.782;6.074;2023-04-15T01:43:19;98581.03;;;8.17;88.80
24858;BME280;12935;50.782;6.074;2023-04-15T01:45:44;98573.28;;;8.15;88.82
24858;BME280;12935;50.782;6.074;2023-04-15T01:48:09;98579.91;;;8.10;89.12
24858;BME280;12935;50.782;6.074;2023-04-15T01:50:35;98572.91;;;8.09;89.31
24858;BME280;12935;50.782;6.074;2023-04-15T01:53:02;98574.47;;;8.07;89.37
24858;BME280;12935;50.782;6.074;2023-04-15T01:55:27;98572.91;;;8.09;88.83
24858;BME280;12935;50.782;6.074;2023-04-15T01:57:52;98573.69;;;8.06;89.15
24858;BME280;12935;50.782;6.074;2023-04-15T02:00:18;98567.88;;;8.04;89.44
24858;BME280;12935;50.782;6.074;2023-04-15T02:02:43;98574.09;;;8.05;90.59
24858;BME280;12935;50.782;6.074;2023-04-15T02:05:08;98567.97;;;7.90;90.76
24858;BME280;12935;50.782;6.074;2023-04-15T02:07:35;98575.75;;;7.88;92.31
24858;BME280;12935;50.782;6.074;2023-04-15T02:10:00;98560.97;;;7.93;93.35
24858;BME280;12935;50.782;6.074;2023-04-15T02:12:26;98575.72;;;7.95;92.32
24858;BME280;12935;50.782;6.074;2023-04-15T02:14:52;98579.22;;;7.92;93.20
24858;BME280;12935;50.782;6.074;2023-04-15T02:17:17;98580.41;;;7.88;95.25
24858;BME280;12935;50.782;6.074;2023-04-15T02:19:42;98575.03;;;7.84;96.20
24858;BME280;12935;50.782;6.074;2023-04-15T02:22:08;98578.53;;;7.85;95.52
24858;BME280;12935;50.782;6.074;2023-04-15T02:24:33;98578.53;;;7.78;95.55
24858;BME280;12935;50.782;6.074;2023-04-15T02:26:59;98566.97;;;7.66;97.39
24858;BME280;12935;50.782;6.074;2023-04-15T02:29:25;98565.81;;;7.64;98.80
24858;BME280;12935;50.782;6.074;2023-04-15T02:31:50;98579.03;;;7.58;99.30
24858;BME280;12935;50.782;6.074;2023-04-15T02:34:15;98576.31;;;7.58;100.00
24858;BME280;12935;50.782;6.074;2023-04-15T02:36:41;98577.88;;;7.56;100.00
24858;BME280;12935;50.782;6.074;2023-04-15T02:39:06;98579.88;;;7.41;100.00
24858;BME280;12935;50.782;6.074;2023-04-15T02:41:31;98580.75;;;7.24;100.00
24858;BME280;12935;50.782;6.074;2023-04-15T02:43:56;98578.00;;;7.27;100.00
24858;BME280;12935;50.782;6.074;2023-04-15T02:46:22;98583.78;;;7.36;100.00
24858;BME280;12935;50.782;6.074;2023-04-15T02:48:48;98589.56;;;7.46;100.00
24858;BME280;12935;50.782;6.074;2023-04-15T02:51:19;98589.97;;;7.44;100.00
24858;BME280;12935;50.782;6.074;2023-04-15T02:53:47;98596.94;;;7.52;100.00
24858;BME280;12935;50.782;6.074;2023-04-15T02:56:13;98592.66;;;7.55;100.00
24858;BME280;12935;50.782;6.074;2023-04-15T02:58:40;98593.81;;;7.54;97.98
24858;BME280;12935;50.782;6.074;2023-04-15T03:01:06;98601.16;;;7.57;95.58
24858;BME280;12935;50.782;6.074;2023-04-15T03:03:33;98595.38;;;7.55;93.48
24858;BME280;12935;50.782;6.074;2023-04-15T03:05:58;98602.34;;;7.56;91.94
24858;BME280;12935;50.782;6.074;2023-04-15T03:08:23;98591.88;;;7.54;91.22
24858;BME280;12935;50.782;6.074;2023-04-15T03:10:49;98595.00;;;7.53;90.04
24858;BME280;12935;50.782;6.074;2023-04-15T03:13:16;98590.72;;;7.55;88.76
24858;BME280;12935;50.782;6.074;2023-04-15T03:15:41;98591.50;;;7.49;88.39
24858;BME280;12935;50.782;6.074;2023-04-15T03:18:07;98594.59;;;7.54;88.40
24858;BME280;12935;50.782;6.074;2023-04-15T03:20:32;98595.00;;;7.53;88.02
24858;BME280;12935;50.782;6.074;2023-04-15T03:22:57;98597.72;;;7.53;88.54
24858;BME280;12935;50.782;6.074;2023-04-15T03:25:23;98592.66;;;7.55;88.81
24858;BME280;12935;50.782;6.074;2023-04-15T03:27:48;98598.50;;;7.53;88.95
24858;BME280;12935;50.782;6.074;2023-04-15T03:30:13;98597.72;;;7.42;90.87
24858;BME280;12935;50.782;6.074;2023-04-15T03:32:39;98602.81;;;7.33;92.36
24858;BME280;12935;50.782;6.074;2023-04-15T03:35:04;98604.81;;;7.11;95.13
24858;BME280;12935;50.782;6.074;2023-04-15T03:37:30;98603.69;;;6.98;95.87
24858;BME280;12935;50.782;6.074;2023-04-15T03:39:56;98601.00;;;6.87;96.67
24858;BME280;12935;50.782;6.074;2023-04-15T03:42:21;98598.69;;;6.72;98.04
24858;BME280;12935;50.782;6.074;2023-04-15T03:44:46;98605.66;;;6.62;99.46
24858;BME280;12935;50.782;6.074;2023-04-15T03:47:12;98598.69;;;6.47;100.00
24858;BME280;12935;50.782;6.074;2023-04-15T03:49:37;98599.84;;;6.17;100.00
24858;BME280;12935;50.782;6.074;2023-04-15T03:52:02;98605.63;;;5.94;100.00
24858;BME280;12935;50.782;6.074;2023-04-15T03:54:28;98602.16;;;5.97;100.00
24858;BME280;12935;50.782;6.074;2023-04-15T03:56:53;98599.81;;;5.96;100.00
24858;BME280;12935;50.782;6.074;2023-04-15T03:59:18;98611.38;;;5.86;100.00
24858;BME280;12935;50.782;6.074;2023-04-15T04:01:44;98616.00;;;5.85;100.00
24858;BME280;12935;50.782;6.074;2023-04-15T04:04:09;98613.38;;;5.99;100.00
24858;BME280;12935;50.782;6.074;2023-04-15T04:06:35;98618.81;;;6.07;100.00
24858;BME280;12935;50.782;6.074;2023-04-15T04:09:00;98613.41;;;6.21;100.00
24858;BME280;12935;50.782;6.074;2023-04-15T04:11:26;98618.84;;;6.24;100.00
24858;BME280;12935;50.782;6.074;2023-04-15T04:13:52;98623.50;;;6.31;100.00
24858;BME280;12935;50.782;6.074;2023-04-15T04:16:17;98620.38;;;6.15;100.00
24858;BME280;12935;50.782;6.074;2023-04-15T04:18:43;98625.44;;;6.13;100.00
24858;BME280;12935;50.782;6.074;2023-04-15T04:21:08;98635.06;;;6.03;100.00
24858;BME280;12935;50.782;6.074;2023-04-15T04:23:33;98636.63;;;5.97;100.00
24858;BME280;12935;50.782;6.074;2023-04-15T04:25:59;98638.09;;;5.80;100.00
24858;BME280;12935;50.782;6.074;2023-04-15T04:28:24;98637.69;;;5.75;100.00
24858;BME280;12935;50.782;6.074;2023-04-15T04:30:49;98644.28;;;5.84;100.00
24858;BME280;12935;50.782;6.074;2023-04-15T04:33:15;98641.59;;;5.88;100.00
24858;BME280;12935;50.782;6.074;2023-04-15T04:35:40;98652.03;;;5.79;100.00
24858;BME280;12935;50.782;6.074;2023-04-15T04:38:05;98646.56;;;5.64;100.00
24858;BME280;12935;50.782;6.074;2023-04-15T04:40:31;98646.19;;;5.73;100.00
24858;BME280;12935;50.782;6.074;2023-04-15T04:42:56;98653.53;;;5.66;100.00
24858;BME280;12935;50.782;6.074;2023-04-15T04:45:22;98660.06;;;5.57;100.00
24858;BME280;12935;50.782;6.074;2023-04-15T04:47:47;98651.59;;;5.66;100.00
24858;BME280;12935;50.782;6.074;2023-04-15T04:50:12;98664.38;;;5.66;100.00
24858;BME280;12935;50.782;6.074;2023-04-15T04:52:38;98653.53;;;5.66;100.00
24858;BME280;12935;50.782;6.074;2023-04-15T04:55:03;98655.47;;;5.69;100.00
24858;BME280;12935;50.782;6.074;2023-04-15T04:57:29;98661.63;;;5.58;100.00
24858;BME280;12935;50.782;6.074;2023-04-15T04:59:54;98670.91;;;5.57;100.00
24858;BME280;12935;50.782;6.074;2023-04-15T05:02:19;98656.59;;;5.60;100.00
24858;BME280;12935;50.782;6.074;2023-04-15T05:04:45;98665.53;;;5.64;100.00
24858;BME280;12935;50.782;6.074;2023-04-15T05:07:10;98669.38;;;5.63;100.00
24858;BME280;12935;50.782;6.074;2023-04-15T05:09:36;98669.38;;;5.63;100.00
24858;BME280;12935;50.782;6.074;2023-04-15T05:12:03;98674.78;;;5.60;100.00
24858;BME280;12935;50.782;6.074;2023-04-15T05:14:28;98672.81;;;5.50;100.00
24858;BME280;12935;50.782;6.074;2023-04-15T05:16:54;98674.31;;;5.44;100.00
24858;BME280;12935;50.782;6.074;2023-04-15T05:19:19;98680.56;;;5.55;100.00
24858;BME280;12935;50.782;6.074;2023-04-15T05:21:44;98683.72;;;5.64;100.00
24858;BME280;12935;50.782;6.074;2023-04-15T05:24:10;98679.06;;;5.68;100.00
24858;BME280;12935;50.782;6.074;2023-04-15T05:26:35;98676.75;;;5.70;100.00
24858;BME280;12935;50.782;6.074;2023-04-15T05:29:01;98679.84;;;5.65;100.00
24858;BME280;12935;50.782;6.074;2023-04-15T05:31:26;98689.56;;;5.73;100.00
24858;BME280;12935;50.782;6.074;2023-04-15T05:33:52;98697.72;;;5.80;100.00
24858;BME280;12935;50.782;6.074;2023-04-15T05:36:17;98705.84;;;5.77;100.00
24858;BME280;12935;50.782;6.074;2023-04-15T05:38:43;98703.47;;;5.72;100.00
24858;BME280;12935;50.782;6.074;2023-04-15T05:41:08;98709.22;;;5.56;100.00
24858;BME280;12935;50.782;6.074;2023-04-15T05:43:33;98713.72;;;5.31;100.00
24858;BME280;12935;50.782;6.074;2023-04-15T05:45:58;98719.13;;;5.31;100.00
24858;BME280;12935;50.782;6.074;2023-04-15T05:48:24;98724.09;;;5.18;100.00
24858;BME280;12935;50.782;6.074;2023-04-15T05:50:49;98714.34;;;5.10;100.00
24858;BME280;12935;50.782;6.074;2023-04-15T05:53:14;98721.66;;;5.06;100.00
24858;BME280;12935;50.782;6.074;2023-04-15T05:55:40;98725.13;;;5.03;100.00
24858;BME280;12935;50.782;6.074;2023-04-15T05:58:05;98737.41;;;4.93;100.00
24858;BME280;12935;50.782;6.074;2023-04-15T06:00:31;98731.31;;;5.07;100.00
24858;BME280;12935;50.782;6.074;2023-04-15T06:02:56;98734.16;;;5.24;100.00
24858;BME280;12935;50.782;6.074;2023-04-15T06:05:23;98739.56;;;5.17;100.00
24858;BME280;12935;50.782;6.074;2023-04-15T06:07:48;98740.84;;;5.34;100.00
24858;BME280;12935;50.782;6.074;2023-04-15T06:10:14;98740.41;;;5.28;100.00
24858;BME280;12935;50.782;6.074;2023-04-15T06:12:40;98745.56;;;5.48;100.00
24858;BME280;12935;50.782;6.074;2023-04-15T06:15:05;98757.66;;;5.68;100.00
24858;BME280;12935;50.782;6.074;2023-04-15T06:17:31;98757.69;;;5.72;100.00
24858;BME280;12935;50.782;6.074;2023-04-15T06:19:56;98763.47;;;5.67;100.00
24858;BME280;12935;50.782;6.074;2023-04-15T06:22:22;98763.97;;;5.86;100.00
24858;BME280;12935;50.782;6.074;2023-04-15T06:24:48;98775.56;;;5.83;100.00
24858;BME280;12935;50.782;6.074;2023-04-15T06:27:17;98756.13;;;5.71;100.00
24858;BME280;12935;50.782;6.074;2023-04-15T06:29:43;98782.50;;;5.77;100.00
24858;BME280;12935;50.782;6.074;2023-04-15T06:32:08;98789.13;;;5.80;100.00
24858;BME280;12935;50.782;6.074;2023-04-15T06:34:33;98795.03;;;5.99;100.00
24858;BME280;12935;50.782;6.074;2023-04-15T06:36:59;98801.31;;;6.14;100.00
24858;BME280;12935;50.782;6.074;2023-04-15T06:39:25;98795.91;;;6.21;100.00
24858;BME280;12935;50.782;6.074;2023-04-15T06:41:51;98802.94;;;6.26;100.00
24858;BME280;12935;50.782;6.074;2023-04-15T06:44:16;98810.63;;;6.13;100.00
24858;BME280;12935;50.782;6.074;2023-04-15T06:46:42;98805.19;;;6.13;100.00
24858;BME280;12935;50.782;6.074;2023-04-15T06:49:08;98804.13;;;6.36;100.00
24858;BME280;12935;50.782;6.074;2023-04-15T06:51:34;98809.25;;;6.69;100.00
24858;BME280;12935;50.782;6.074;2023-04-15T06:54:00;98817.84;;;6.89;100.00
24858;BME280;12935;50.782;6.074;2023-04-15T06:56:26;98824.06;;;7.03;100.00
24858;BME280;12935;50.782;6.074;2023-04-15T06:58:51;98818.28;;;7.23;100.00
24858;BME280;12935;50.782;6.074;2023-04-15T07:01:16;98821.38;;;7.35;100.00
24858;BME280;12935;50.782;6.074;2023-04-15T07:03:42;98834.19;;;7.46;100.00
24858;BME280;12935;50.782;6.074;2023-04-15T07:06:07;98840.41;;;7.46;100.00
24858;BME280;12935;50.782;6.074;2023-04-15T07:08:34;98847.38;;;7.44;100.00
24858;BME280;12935;50.782;6.074;2023-04-15T07:11:00;98844.25;;;7.59;100.00
24858;BME280;12935;50.782;6.074;2023-04-15T07:13:25;98852.03;;;7.79;100.00
24858;BME280;12935;50.782;6.074;2023-04-15T07:15:51;98852.00;;;7.93;100.00
24858;BME280;12935;50.782;6.074;2023-04-15T07:18:16;98856.63;;;8.03;100.00
24858;BME280;12935;50.782;6.074;2023-04-15T07:20:41;98863.28;;;7.98;100.00
24858;BME280;12935;50.782;6.074;2023-04-15T07:23:07;98870.97;;;8.21;100.00
24858;BME280;12935;50.782;6.074;2023-04-15T07:25:32;98865.91;;;8.41;100.00
24858;BME280;12935;50.782;6.074;2023-04-15T07:27:57;98871.66;;;8.61;100.00
24858;BME280;12935;50.782;6.074;2023-04-15T07:30:23;98883.66;;;8.74;100.00
24858;BME280;12935;50.782;6.074;2023-04-15T07:32:48;98879.72;;;8.86;100.00
24858;BME280;12935;50.782;6.074;2023-04-15T07:35:13;98890.59;;;8.96;99.81
24858;BME280;12935;50.782;6.074;2023-04-15T07:37:39;98892.84;;;9.12;99.36
24858;BME280;12935;50.782;6.074;2023-04-15T07:40:04;98885.75;;;9.25;98.30
24858;BME280;12935;50.782;6.074;2023-04-15T07:42:32;98894.19;;;9.41;96.88
24858;BME280;12935;50.782;6.074;2023-04-15T07:44:58;98899.28;;;9.36;97.00
24858;BME280;12935;50.782;6.074;2023-04-15T07:47:23;98901.13;;;9.49;96.58
24858;BME280;12935;50.782;6.074;2023-04-15T07:49:48;98905.31;;;9.65;95.71
24858;BME280;12935;50.782;6.074;2023-04-15T07:52:15;98914.50;;;9.85;95.09
24858;BME280;12935;50.782;6.074;2023-04-15T07:54:40;98921.19;;;9.77;95.28
24858;BME280;12935;50.782;6.074;2023-04-15T07:57:06;98912.13;;;9.91;95.52
24858;BME280;12935;50.782;6.074;2023-04-15T07:59:32;98916.84;;;9.87;95.90
24858;BME280;12935;50.782;6.074;2023-04-15T08:01:57;98929.19;;;10.02;96.48
24858;BME280;12935;50.782;6.074;2023-04-15T08:04:23;98934.94;;;10.11;93.23
24858;BME280;12935;50.782;6.074;2023-04-15T08:06:48;98941.94;;;10.19;92.11
24858;BME280;12935;50.782;6.074;2023-04-15T08:09:14;98941.53;;;10.13;90.84
24858;BME280;12935;50.782;6.074;2023-04-15T08:11:40;98943.97;;;10.04;91.22
24858;BME280;12935;50.782;6.074;2023-04-15T08:14:05;98946.09;;;10.31;91.45
24858;BME280;12935;50.782;6.074;2023-04-15T08:16:30;98942.38;;;10.51;90.76
24858;BME280;12935;50.782;6.074;2023-04-15T08:18:56;98953.91;;;10.70;89.96
24858;BME280;12935;50.782;6.074;2023-04-15T08:21:22;98962.94;;;10.63;89.06
24858;BME280;12935;50.782;6.074;2023-04-15T08:23:49;98947.22;;;10.37;90.23
24858;BME280;12935;50.782;6.074;2023-04-15T08:26:15;98949.34;;;10.56;91.75
24858;BME280;12935;50.782;6.074;2023-04-15T08:28:42;98951.91;;;10.36;92.88
24858;BME280;12935;50.782;6.074;2023-04-15T08:31:08;98956.53;;;10.39;93.97
24858;BME280;12935;50.782;6.074;2023-04-15T08:33:33;98960.97;;;10.64;93.20
24858;BME280;12935;50.782;6.074;2023-04-15T08:35:59;98965.88;;;10.79;94.79
24858;BME280;12935;50.782;6.074;2023-04-15T08:38:24;98969.66;;;10.89;94.54
24858;BME280;12935;50.782;6.074;2023-04-15T08:40:50;98968.44;;;10.60;94.05
24858;BME280;12935;50.782;6.074;2023-04-15T08:43:22;98969.25;;;10.90;92.49
24858;BME280;12935;50.782;6.074;2023-04-15T08:45:51;98978.63;;;11.23;92.55
24858;BME280;12935;50.782;6.074;2023-04-15T08:48:17;98983.44;;;11.43;91.76
24858;BME280;12935;50.782;6.074;2023-04-15T08:50:43;98979.28;;;11.62;92.18
24858;BME280;12935;50.782;6.074;2023-04-15T08:53:10;98985.72;;;11.78;91.50
24858;BME280;12935;50.782;6.074;2023-04-15T08:55:39;98991.63;;;12.00;91.01
24858;BME280;12935;50.782;6.074;2023-04-15T08:58:08;98983.00;;;12.02;90.08
24858;BME280;12935;50.782;6.074;2023-04-15T09:00:34;98996.03;;;11.94;90.73
24858;BME280;12935;50.782;6.074;2023-04-15T09:03:00;98995.69;;;12.15;88.64
24858;BME280;12935;50.782;6.074;2023-04-15T09:05:26;99003.25;;;12.08;87.30
24858;BME280;12935;50.782;6.074;2023-04-15T09:07:51;98994.75;;;12.25;87.02
24858;BME280;12935;50.782;6.074;2023-04-15T09:10:16;99002.88;;;12.29;87.55
24858;BME280;12935;50.782;6.074;2023-04-15T09:12:42;99017.22;;;12.13;86.60
24858;BME280;12935;50.782;6.074;2023-04-15T09:15:10;99013.16;;;11.98;87.91
24858;BME280;12935;50.782;6.074;2023-04-15T09:17:41;99025.28;;;12.24;88.68
24858;BME280;12935;50.782;6.074;2023-04-15T09:20:08;99017.84;;;11.98;87.87
24858;BME280;12935;50.782;6.074;2023-04-15T09:22:35;99024.25;;;12.14;88.00
24858;BME280;12935;50.782;6.074;2023-04-15T09:25:01;99025.66;;;12.26;88.41
24858;BME280;12935;50.782;6.074;2023-04-15T09:27:26;99031.28;;;12.62;88.00
24858;BME280;12935;50.782;6.074;2023-04-15T09:29:52;99033.44;;;12.94;86.99
24858;BME280;12935;50.782;6.074;2023-04-15T09:32:18;99037.78;;;13.34;85.25
24858;BME280;12935;50.782;6.074;2023-04-15T09:34:45;99037.63;;;13.78;81.04
24858;BME280;12935;50.782;6.074;2023-04-15T09:37:11;99046.97;;;14.16;77.46
24858;BME280;12935;50.782;6.074;2023-04-15T09:39:48;99054.09;;;14.30;74.87
24858;BME280;12935;50.782;6.074;2023-04-15T09:42:14;99050.16;;;14.15;71.13
24858;BME280;12935;50.782;6.074;2023-04-15T09:44:41;99045.88;;;14.46;71.00
24858;BME280;12935;50.782;6.074;2023-04-15T09:47:07;99058.16;;;14.58;70.40
24858;BME280;12935;50.782;6.074;2023-04-15T09:49:32;99057.78;;;14.72;66.98
24858;BME280;12935;50.782;6.074;2023-04-15T09:52:01;99051.13;;;14.86;66.64
24858;BME280;12935;50.782;6.074;2023-04-15T09:54:37;99064.44;;;15.03;64.70
24858;BME280;12935;50.782;6.074;2023-04-15T09:57:07;99060.88;;;15.32;64.96
24858;BME280;12935;50.782;6.074;2023-04-15T09:59:33;99057.25;;;15.64;61.83
24858;BME280;12935;50.782;6.074;2023-04-15T10:01:59;99066.00;;;15.88;61.71
24858;BME280;12935;50.782;6.074;2023-04-15T10:04:26;99078.84;;;15.78;60.43
24858;BME280;12935;50.782;6.074;2023-04-15T10:06:52;99087.25;;;15.45;56.86
24858;BME280;12935;50.782;6.074;2023-04-15T10:09:17;99064.78;;;15.89;58.61
24858;BME280;12935;50.782;6.074;2023-04-15T10:11:44;99079.66;;;16.29;56.88
24858;BME280;12935;50.782;6.074;2023-04-15T10:14:10;99095.13;;;15.31;56.07
24858;BME280;12935;50.782;6.074;2023-04-15T10:16:40;99082.28;;;15.69;56.29
24858;BME280;12935;50.782;6.074;2023-04-15T10:19:08;99078.66;;;15.72;54.85
24858;BME280;12935;50.782;6.074;2023-04-15T10:21:34;99094.66;;;16.16;54.53
24858;BME280;12935;50.782;6.074;2023-04-15T10:24:02;99094.22;;;16.04;55.09
24858;BME280;12935;50.782;6.074;2023-04-15T10:26:27;99099.13;;;16.60;54.34
24858;BME280;12935;50.782;6.074;2023-04-15T10:28:53;99090.06;;;16.85;52.62
24858;BME280;12935;50.782;6.074;2023-04-15T10:31:19;99098.47;;;16.69;51.21
24858;BME280;12935;50.782;6.074;2023-04-15T10:33:45;99096.94;;;16.55;49.07
24858;BME280;12935;50.782;6.074;2023-04-15T10:36:12;99098.16;;;16.54;49.78
24858;BME280;12935;50.782;6.074;2023-04-15T10:38:43;99103.25;;;16.05;50.10
24858;BME280;12935;50.782;6.074;2023-04-15T10:41:20;99109.38;;;15.42;50.46
24858;BME280;12935;50.782;6.074;2023-04-15T10:43:55;99104.13;;;15.89;51.34
24858;BME280;12935;50.782;6.074;2023-04-15T10:49:06;99124.50;;;15.92;50.21
24858;BME280;12935;50.782;6.074;2023-04-15T10:51:32;99114.72;;;16.03;50.49
24858;BME280;12935;50.782;6.074;2023-04-15T10:53:58;99130.13;;;15.30;52.95
24858;BME280;12935;50.782;6.074;2023-04-15T10:56:24;99123.88;;;15.59;53.20
24858;BME280;12935;50.782;6.074;2023-04-15T10:58:49;99128.25;;;15.85;53.58
24858;BME280;12935;50.782;6.074;2023-04-15T11:01:15;99125.53;;;15.56;51.70
24858;BME280;12935;50.782;6.074;2023-04-15T11:03:42;99115.00;;;15.38;52.44
24858;BME280;12935;50.782;6.074;2023-04-15T11:06:07;99138.47;;;15.27;52.72
24858;BME280;12935;50.782;6.074;2023-04-15T11:08:54;99131.22;;;15.20;52.62
24858;BME280;12935;50.782;6.074;2023-04-15T11:11:21;99132.66;;;15.54;53.30
24858;BME280;12935;50.782;6.074;2023-04-15T11:13:48;99142.22;;;15.78;51.38
24858;BME280;12935;50.782;6.074;2023-04-15T11:16:13;99145.31;;;15.51;49.71
24858;BME280;12935;50.782;6.074;2023-04-15T11:18:38;99145.78;;;14.56;51.06
24858;BME280;12935;50.782;6.074;2023-04-15T11:21:05;99146.19;;;15.03;52.51
24858;BME280;12935;50.782;6.074;2023-04-15T11:23:42;99147.94;;;15.42;52.29
24858;BME280;12935;50.782;6.074;2023-04-15T11:26:11;99149.66;;;15.36;51.59
24858;BME280;12935;50.782;6.074;2023-04-15T11:28:40;99164.88;;;15.98;52.74
24858;BME280;12935;50.782;6.074;2023-04-15T11:31:12;99154.94;;;16.01;51.63
24858;BME280;12935;50.782;6.074;2023-04-15T11:33:53;99170.81;;;16.09;52.27
24858;BME280;12935;50.782;6.074;2023-04-15T11:36:18;99174.34;;;15.56;51.28
24858;BME280;12935;50.782;6.074;2023-04-15T11:38:45;99173.22;;;15.37;48.26
24858;BME280;12935;50.782;6.074;2023-04-15T11:41:11;99178.72;;;14.92;48.22
24858;BME280;12935;50.782;6.074;2023-04-15T11:43:36;99179.56;;;15.05;49.11
24858;BME280;12935;50.782;6.074;2023-04-15T11:46:02;99183.78;;;14.93;49.86
24858;BME280;12935;50.782;6.074;2023-04-15T11:48:30;99187.03;;;14.88;50.05
24858;BME280;12935;50.782;6.074;2023-04-15T11:50:59;99192.28;;;14.83;51.83
24858;BME280;12935;50.782;6.074;2023-04-15T11:56:04;99185.81;;;15.22;52.06
24858;BME280;12935;50.782;6.074;2023-04-15T11:58:29;99182.91;;;14.96;51.88
24858;BME280;12935;50.782;6.074;2023-04-15T12:00:59;99187.38;;;14.58;51.91
24858;BME280;12935;50.782;6.074;2023-04-15T12:06:17;99192.97;;;14.70;53.57
24858;BME280;12935;50.782;6.074;2023-04-15T12:13:53;99206.59;;;14.42;55.88
24858;BME280;12935;50.782;6.074;2023-04-15T12:16:20;99218.53;;;14.51;55.70
24858;BME280;12935;50.782;6.074;2023-04-15T12:18:46;99209.72;;;14.60;55.33
24858;BME280;12935;50.782;6.074;2023-04-15T12:21:12;99216.28;;;14.98;55.44
24858;BME280;12935;50.782;6.074;2023-04-15T12:23:39;99216.97;;;15.19;55.15
24858;BME280;12935;50.782;6.074;2023-04-15T12:26:11;99218.09;;;14.89;55.53
24858;BME280;12935;50.782;6.074;2023-04-15T12:28:39;99223.66;;;15.18;56.07
24858;BME280;12935;50.782;6.074;2023-04-15T12:31:06;99223.50;;;14.92;56.88
24858;BME280;12935;50.782;6.074;2023-04-15T12:33:33;99230.13;;;14.95;58.38
24858;BME280;12935;50.782;6.074;2023-04-15T12:35:58;99229.44;;;15.23;58.18
24858;BME280;12935;50.782;6.074;2023-04-15T12:38:23;99231.84;;;15.05;57.68
24858;BME280;12935;50.782;6.074;2023-04-15T12:40:49;99241.13;;;14.79;57.59
24858;BME280;12935;50.782;6.074;2023-04-15T12:43:14;99246.81;;;15.04;57.43
24858;BME280;12935;50.782;6.074;2023-04-15T12:45:39;99254.34;;;15.49;56.58
24858;BME280;12935;50.782;6.074;2023-04-15T12:48:05;99253.31;;;15.42;56.77
24858;BME280;12935;50.782;6.074;2023-04-15T12:50:32;99256.75;;;15.30;57.23
24858;BME280;12935;50.782;6.074;2023-04-15T12:52:57;99265.34;;;14.84;57.32
24858;BME280;12935;50.782;6.074;2023-04-15T12:55:23;99259.72;;;15.07;57.15
24858;BME280;12935;50.782;6.074;2023-04-15T12:57:48;99268.91;;;15.33;57.72
24858;BME280;12935;50.782;6.074;2023-04-15T13:00:13;99275.53;;;15.68;57.67
24858;BME280;12935;50.782;6.074;2023-04-15T13:02:39;99268.03;;;16.39;56.56
24858;BME280;12935;50.782;6.074;2023-04-15T13:05:04;99272.00;;;18.74;51.61
24858;BME280;12935;50.782;6.074;2023-04-15T13:07:30;99285.06;;;19.90;46.02
24858;BME280;12935;50.782;6.074;2023-04-15T13:09:55;99289.31;;;20.64;41.60